Shorewood, Wisconsin
Current Conditions -  °F | °C
As of 6:45 PM on Monday 24 Nov 2014 (Local Time) from KMWC Reporting Station
Moderate Snow Moderate Snow  
Wind Chill: 14°   Ceiling: 1500
Heat Index: 27°   Visibility: 2mi
Dew Point: 21°   Wind: 17mph
Humidity: 80%   Direction: 250°WSW
Pressure: 29.56"   Gusts: 25mph
Location:  43.0828°N, 87.8841°W
Report Text: KMWC 250045Z AUTO 25015G22KT 2SM SN OVC015 M03/M06 A2956
Loading
Personal Weather Stations






























Interactive Weather Map New forecast layout! Learn more

10-Day Weather Forecast

Advertisements
Track Severe Weather on mobile